Time;durP1;ratioP1;P1;durP2;ratioP2;P2;SDS_P1;SDS_P2;PMS_P1;PMS_P2;Temp;Humidity;BMP_temperature;BMP_pressure;BME280_temperature;BME280_humidity;BME280_pressure;Samples;Min_cycle;Max_cycle;Signal;HPM_P1;HPM_P2
2022/10/01 00:02:03;;;;;;;8.43;5.97;;;;;;;4.51;100.00;100342.88;4994203;28;20403;-82
2022/10/01 00:04:30;;;;;;;9.03;5.83;;;;;;;4.46;100.00;100347.25;4995358;28;20509;-82
2022/10/01 00:06:59;;;;;;;7.20;5.53;;;;;;;4.42;100.00;100340.28;5025243;28;20045;-82
2022/10/01 00:09:26;;;;;;;8.30;5.87;;;;;;;4.46;100.00;100336.81;5005709;28;20045;-81
2022/10/01 00:11:52;;;;;;;12.23;6.27;;;;;;;4.51;100.00;100334.16;5025550;28;20040;-81
2022/10/01 00:14:19;;;;;;;9.97;6.20;;;;;;;4.46;100.00;100325.47;5010153;28;21791;-81
2022/10/01 00:16:46;;;;;;;7.63;6.07;;;;;;;4.37;100.00;100330.69;5009858;28;20041;-81
2022/10/01 00:19:13;;;;;;;8.07;5.70;;;;;;;4.36;100.00;100324.56;4993932;28;20046;-81
2022/10/01 00:21:40;;;;;;;9.67;6.83;;;;;;;4.38;100.00;100327.22;5010783;28;22185;-81
2022/10/01 00:24:10;;;;;;;9.10;6.30;;;;;;;4.39;100.00;100329.81;4992783;28;20139;-81
2022/10/01 00:26:37;;;;;;;7.40;6.43;;;;;;;4.37;100.00;100320.22;4996547;28;20049;-81
2022/10/01 00:29:08;;;;;;;9.07;6.40;;;;;;;4.37;100.00;100322.81;5009961;28;20550;-80
2022/10/01 00:31:35;;;;;;;8.33;6.43;;;;;;;4.32;100.00;100329.81;5014180;28;20087;-83
2022/10/01 00:34:03;;;;;;;6.87;6.03;;;;;;;4.30;100.00;100324.59;5004208;28;20484;-82
2022/10/01 00:36:31;;;;;;;7.47;6.50;;;;;;;4.36;100.00;100321.97;5012314;28;20050;-82
2022/10/01 00:38:59;;;;;;;10.07;6.83;;;;;;;4.35;100.00;100329.81;4999439;28;20046;-82
2022/10/01 00:41:31;;;;;;;10.00;6.07;;;;;;;4.33;100.00;100324.59;4997739;28;20076;-81
2022/10/01 00:44:01;;;;;;;9.43;6.63;;;;;;;4.28;100.00;100320.22;5011973;28;20048;-81
2022/10/01 00:46:40;;;;;;;8.03;6.27;;;;;;;4.33;100.00;100318.50;5016121;28;20061;-82
2022/10/01 00:49:20;;;;;;;7.80;6.27;;;;;;;4.33;100.00;100311.50;5016566;28;20037;-82
2022/10/01 00:51:50;;;;;;;7.03;5.60;;;;;;;4.37;100.00;100310.66;4998362;28;20053;-81
2022/10/01 00:54:25;;;;;;;10.10;6.67;;;;;;;4.35;100.00;100304.53;5016488;28;20045;-80
2022/10/01 00:56:54;;;;;;;7.73;6.53;;;;;;;4.33;100.00;100298.44;5014739;28;20487;-81
2022/10/01 00:59:21;;;;;;;9.60;6.20;;;;;;;4.35;100.00;100299.28;5013831;28;20138;-81
2022/10/01 01:01:47;;;;;;;8.93;6.33;;;;;;;4.36;100.00;100300.16;5030206;28;20447;-81
2022/10/01 01:04:17;;;;;;;8.37;5.77;;;;;;;4.30;100.00;100297.59;5031519;28;20049;-83
2022/10/01 01:06:52;;;;;;;9.07;6.20;;;;;;;4.24;100.00;100298.44;5025735;28;20108;-82
2022/10/01 01:09:20;;;;;;;6.53;5.30;;;;;;;4.26;100.00;100291.47;4998837;28;20037;-81
2022/10/01 01:12:05;;;;;;;10.63;6.03;;;;;;;4.26;100.00;100298.44;5010840;28;20576;-82
2022/10/01 01:14:39;;;;;;;7.60;5.97;;;;;;;4.22;100.00;100289.75;5014786;28;20048;-82
2022/10/01 01:17:11;;;;;;;8.63;6.38;;;;;;;4.22;100.00;100288.00;5027261;28;20042;-80
2022/10/01 01:20:17;;;;;;;11.20;6.63;;;;;;;4.12;100.00;100287.97;4997562;28;20064;-82
2022/10/01 01:22:47;;;;;;;;;;;;;;;4.09;100.00;100285.38;5030392;28;20509;-80
2022/10/01 01:25:19;;;;;;;9.10;6.80;;;;;;;4.10;100.00;100287.13;4996289;28;19932;-81
2022/10/01 01:28:03;;;;;;;7.20;5.87;;;;;;;4.13;100.00;100279.28;5012231;28;20068;-83
2022/10/01 01:30:31;;;;;;;9.13;7.23;;;;;;;4.12;100.00;100281.03;5031953;28;20046;-81
2022/10/01 01:33:08;;;;;;;9.43;6.67;;;;;;;4.12;100.00;100275.81;5007185;28;20088;-81
2022/10/01 01:35:39;;;;;;;9.43;7.03;;;;;;;4.08;100.00;100278.41;4996709;28;20045;-81
2022/10/01 01:38:10;;;;;;;9.43;7.13;;;;;;;4.11;100.00;100260.09;5015377;28;20088;-80
2022/10/01 01:40:37;;;;;;;9.80;7.10;;;;;;;4.21;100.00;100261.84;4998848;28;20050;-81
2022/10/01 01:43:09;;;;;;;9.87;7.60;;;;;;;4.13;100.00;100259.25;4983850;28;20042;-80
2022/10/01 01:45:38;;;;;;;9.60;7.27;;;;;;;4.14;100.00;100260.97;4997584;28;20459;-83
2022/10/01 01:48:07;;;;;;;10.63;6.97;;;;;;;4.19;100.00;100245.28;4984238;28;20057;-83
2022/10/01 01:50:42;;;;;;;12.30;7.67;;;;;;;4.25;100.00;100258.34;5012182;28;20041;-80
2022/10/01 01:53:08;;;;;;;13.65;8.45;;;;;;;4.28;100.00;100252.22;5015874;28;20038;-80
2022/10/01 01:55:36;;;;;;;14.77;8.87;;;;;;;4.44;100.00;100254.81;4997102;28;20038;-80
2022/10/01 01:58:02;;;;;;;11.40;8.50;;;;;;;4.31;100.00;100245.28;5006449;28;20095;-80
2022/10/01 02:00:29;;;;;;;12.17;9.23;;;;;;;4.27;100.00;100245.25;4998540;28;20038;-83
2022/10/01 02:02:56;;;;;;;10.90;9.27;;;;;;;4.33;100.00;100247.88;5001051;28;20037;-83
2022/10/01 02:05:26;;;;;;;12.70;8.43;;;;;;;4.28;100.00;100240.03;5011819;28;20422;-81
2022/10/01 02:08:00;;;;;;;12.97;8.93;;;;;;;4.28;100.00;100244.38;5013961;28;20069;-81
2022/10/01 02:10:38;;;;;;;11.97;8.93;;;;;;;4.27;100.00;100247.88;5031088;28;20049;-80
2022/10/01 02:13:21;;;;;;;10.97;8.17;;;;;;;4.25;100.00;100247.88;5031591;28;20449;-81
2022/10/01 02:15:58;;;;;;;11.73;8.70;;;;;;;4.27;100.00;100242.66;5038770;28;20395;-81
2022/10/01 02:18:38;;;;;;;12.37;8.43;;;;;;;4.27;100.00;100243.53;5030532;28;20076;-81
2022/10/01 02:21:32;;;;;;;11.17;8.00;;;;;;;4.28;100.00;100240.03;5032319;28;20557;-82
2022/10/01 02:24:25;;;;;;;11.77;8.07;;;;;;;4.34;100.00;100245.25;5013123;28;20091;-82
2022/10/01 02:26:53;;;;;;;16.13;9.77;;;;;;;4.35;100.00;100249.59;5007851;28;20422;-81
2022/10/01 02:29:21;;;;;;;9.33;7.83;;;;;;;4.35;100.00;100244.38;4995104;28;20044;-82
2022/10/01 02:31:49;;;;;;;14.53;8.97;;;;;;;4.34;100.00;100234.78;5042698;28;20048;-80
2022/10/01 02:34:22;;;;;;;13.03;9.37;;;;;;;4.34;100.00;100242.63;5019333;28;20041;-81
2022/10/01 02:36:49;;;;;;;14.03;9.47;;;;;;;4.42;100.00;100235.66;4996669;28;20067;-82
2022/10/01 02:39:20;;;;;;;17.57;11.10;;;;;;;4.53;100.00;100241.72;4994717;28;20041;-81
2022/10/01 02:41:49;;;;;;;14.63;10.33;;;;;;;4.47;100.00;100235.66;5018197;28;20042;-82
2022/10/01 02:44:20;;;;;;;18.17;11.03;;;;;;;4.48;100.00;100232.16;5016694;28;20045;-81
2022/10/01 02:47:04;;;;;;;16.47;12.07;;;;;;;4.51;100.00;100226.91;4999081;28;20046;-82
2022/10/01 02:49:31;;;;;;;17.00;12.02;;;;;;;4.56;100.00;100233.00;5024468;28;20042;-81
2022/10/01 02:52:20;;;;;;;16.10;12.20;;;;;;;4.62;100.00;100232.09;5021031;28;20506;-82
2022/10/01 02:54:59;;;;;;;16.10;11.43;;;;;;;4.60;100.00;100226.00;5015048;28;20049;-82
2022/10/01 02:57:29;;;;;;;17.43;11.37;;;;;;;4.64;100.00;100219.91;5000841;28;20041;-82
2022/10/01 02:59:58;;;;;;;14.87;11.23;;;;;;;4.65;100.00;100219.03;5013689;28;20037;-81
2022/10/01 03:02:27;;;;;;;17.13;11.77;;;;;;;4.75;100.00;100218.13;5012920;28;20088;-82
2022/10/01 03:04:56;;;;;;;17.50;12.43;;;;;;;4.67;100.00;100215.53;4996763;28;20037;-82
2022/10/01 03:07:26;;;;;;;16.67;12.60;;;;;;;4.78;100.00;100210.25;5008991;28;20535;-80
2022/10/01 03:09:53;;;;;;;20.93;13.70;;;;;;;4.82;100.00;100209.38;5012679;28;20419;-82
2022/10/01 03:12:20;;;;;;;16.87;12.87;;;;;;;4.94;100.00;100204.06;5012683;28;20040;-83
2022/10/01 03:14:47;;;;;;;17.53;13.30;;;;;;;4.90;100.00;100194.50;5025399;28;20045;-81
2022/10/01 03:17:14;;;;;;;20.47;13.83;;;;;;;4.92;100.00;100200.59;5046678;28;20092;-82
2022/10/01 03:19:41;;;;;;;23.93;14.23;;;;;;;4.95;100.00;100195.31;5009553;28;20453;-82
2022/10/01 03:22:12;;;;;;;20.40;14.03;;;;;;;4.94;100.00;100192.72;5028479;28;20034;-82
2022/10/01 03:24:38;;;;;;;21.13;14.67;;;;;;;5.11;100.00;100187.38;5009186;28;20041;-82
2022/10/01 03:27:05;;;;;;;19.17;13.87;;;;;;;5.07;100.00;100189.16;5029226;28;20099;-80
2022/10/01 03:29:32;;;;;;;20.33;14.63;;;;;;;5.10;100.00;100183.91;5017852;28;20041;-82
2022/10/01 03:31:58;;;;;;;21.10;14.47;;;;;;;5.14;100.00;100179.53;5012918;28;20092;-82
2022/10/01 03:34:25;;;;;;;24.67;16.47;;;;;;;5.55;100.00;100176.59;5014056;28;20103;-81
2022/10/01 03:36:52;;;;;;;22.47;14.83;;;;;;;5.52;100.00;100179.25;4997134;28;20049;-82
2022/10/01 03:39:18;;;;;;;25.90;16.90;;;;;;;5.53;100.00;100171.38;5001002;28;20041;-81
2022/10/01 03:41:48;;;;;;;26.43;16.90;;;;;;;5.59;100.00;100166.09;5001629;28;20064;-81
2022/10/01 03:44:15;;;;;;;23.00;16.27;;;;;;;5.63;100.00;100166.94;5001749;28;20107;-82
2022/10/01 03:46:42;;;;;;;25.00;16.07;;;;;;;5.65;100.00;100154.72;5019517;28;20037;-81
2022/10/01 03:49:12;;;;;;;22.83;14.53;;;;;;;5.68;100.00;100161.66;5001409;28;20049;-82
2022/10/01 03:51:41;;;;;;;24.40;15.53;;;;;;;5.76;100.00;100162.47;5001816;28;20079;-81
2022/10/01 03:54:08;;;;;;;18.70;13.53;;;;;;;5.75;100.00;100165.97;4996483;28;20053;-82
2022/10/01 03:56:35;;;;;;;21.03;14.47;;;;;;;5.78;100.00;100163.31;5016786;28;20037;-82
2022/10/01 03:59:02;;;;;;;18.17;14.23;;;;;;;5.80;100.00;100157.19;5011356;28;20048;-81
2022/10/01 04:01:29;;;;;;;24.73;14.67;;;;;;;5.92;100.00;100154.47;5004566;28;20041;-81
2022/10/01 04:03:56;;;;;;;21.43;14.03;;;;;;;5.89;100.00;100156.25;5023056;28;20044;-80
2022/10/01 04:06:23;;;;;;;20.60;14.80;;;;;;;5.98;100.00;100152.69;5016222;28;20410;-80
2022/10/01 04:08:50;;;;;;;22.20;14.67;;;;;;;5.97;100.00;100145.69;5012338;28;20044;-81
2022/10/01 04:11:16;;;;;;;21.03;14.80;;;;;;;5.96;100.00;100144.81;5003560;28;20422;-82
2022/10/01 04:13:43;;;;;;;18.10;13.07;;;;;;;5.94;100.00;100141.34;5007539;28;20135;-82
2022/10/01 04:16:10;;;;;;;19.60;14.23;;;;;;;5.95;100.00;100140.47;5004168;28;20049;-81
2022/10/01 04:18:37;;;;;;;17.03;13.73;;;;;;;5.95;100.00;100136.97;5020623;28;20037;-82
2022/10/01 04:21:04;;;;;;;19.63;13.93;;;;;;;5.98;100.00;100124.72;5071188;22;20231;-81
2022/10/01 04:23:31;;;;;;;20.17;13.33;;;;;;;6.02;100.00;100129.03;5020378;28;20504;-80
2022/10/01 04:25:59;;;;;;;19.27;13.37;;;;;;;6.07;100.00;100118.50;5049756;28;20494;-81
2022/10/01 04:28:27;;;;;;;19.50;13.40;;;;;;;6.13;100.00;100118.41;5052038;28;20044;-81
2022/10/01 04:31:23;;;;;;;18.70;13.97;;;;;;;6.14;100.00;100128.06;5033961;28;20045;-82
2022/10/01 04:33:40;;;;;;;20.83;14.77;;;;;;;6.15;100.00;100114.06;5049776;28;20095;-81
2022/10/01 04:36:07;;;;;;;20.13;14.33;;;;;;;6.17;100.00;100115.75;5024273;28;20043;-80
2022/10/01 04:38:33;;;;;;;21.37;13.97;;;;;;;6.26;100.00;100108.69;5045415;28;20083;-82
2022/10/01 04:41:00;;;;;;;19.03;13.07;;;;;;;6.30;100.00;100118.22;5048079;28;20094;-81
2022/10/01 04:43:27;;;;;;;19.17;13.70;;;;;;;6.33;100.00;100123.47;5049184;28;20033;-80
2022/10/01 04:45:53;;;;;;;20.60;13.77;;;;;;;6.31;100.00;100117.38;5029371;28;20124;-80
2022/10/01 04:48:20;;;;;;;19.27;13.50;;;;;;;6.34;100.00;100112.06;5024100;28;20059;-82
2022/10/01 04:50:47;;;;;;;16.80;12.27;;;;;;;6.38;100.00;100113.75;5047142;28;20057;-82
2022/10/01 04:53:13;;;;;;;18.07;12.63;;;;;;;6.35;100.00;100103.31;5043153;28;20029;-82
2022/10/01 04:55:41;;;;;;;17.67;12.20;;;;;;;6.51;100.00;100101.38;5036600;28;20040;-82
2022/10/01 04:58:08;;;;;;;19.30;13.00;;;;;;;6.54;100.00;100103.94;5049638;28;20497;-81
2022/10/01 05:00:35;;;;;;;15.60;12.00;;;;;;;6.40;100.00;100110.25;5033841;28;20044;-81
2022/10/01 05:03:01;;;;;;;17.67;12.90;;;;;;;6.49;100.00;100104.88;5044880;28;20036;-82
2022/10/01 05:05:31;;;;;;;17.47;13.07;;;;;;;6.49;100.00;100104.03;5031133;28;20045;-80
2022/10/01 05:07:58;;;;;;;19.47;13.53;;;;;;;6.53;100.00;100105.69;5033038;28;20037;-81
2022/10/01 05:10:25;;;;;;;20.30;13.43;;;;;;;6.47;100.00;100098.78;5047949;28;20127;-81
2022/10/01 05:12:51;;;;;;;17.60;12.23;;;;;;;6.51;100.00;100088.25;5045301;28;20412;-81
2022/10/01 05:15:18;;;;;;;18.80;12.23;;;;;;;6.49;100.00;100102.25;5052996;28;20125;-81
2022/10/01 05:17:45;;;;;;;17.07;12.80;;;;;;;6.53;100.00;100102.22;5043277;28;20045;-81
2022/10/01 05:20:20;;;;;;;16.20;12.37;;;;;;;6.54;100.00;100089.06;5063636;28;20046;-81
2022/10/01 05:22:48;;;;;;;15.90;12.23;;;;;;;6.63;100.00;100101.19;5035017;28;20033;-81
2022/10/01 05:25:15;;;;;;;17.67;11.70;;;;;;;6.59;100.00;100094.25;5036251;28;20082;-80
2022/10/01 05:27:42;;;;;;;19.33;12.43;;;;;;;6.65;100.00;100089.81;5030337;28;20048;-80
2022/10/01 05:30:10;;;;;;;18.60;12.10;;;;;;;6.62;100.00;100083.72;5024230;28;20044;-81
2022/10/01 05:32:37;;;;;;;15.93;11.90;;;;;;;6.67;100.00;100090.66;5034596;28;20032;-81
2022/10/01 05:35:06;;;;;;;18.57;11.90;;;;;;;6.76;100.00;100094.91;5036361;28;20059;-82
2022/10/01 05:37:33;;;;;;;19.43;13.37;;;;;;;6.83;100.00;100085.19;5046166;28;20051;-81
2022/10/01 05:40:00;;;;;;;16.67;11.77;;;;;;;6.79;100.00;100084.34;5035191;28;20094;-81
2022/10/01 05:42:27;;;;;;;14.73;10.70;;;;;;;6.68;100.00;100079.25;5058611;28;20530;-81
2022/10/01 05:44:54;;;;;;;15.13;12.00;;;;;;;6.73;100.00;100081.84;5035673;28;20048;-81
2022/10/01 05:47:22;;;;;;;16.70;11.93;;;;;;;6.80;100.00;100082.59;5033338;28;20040;-81
2022/10/01 05:49:48;;;;;;;15.57;11.03;;;;;;;6.82;100.00;100080.84;5045026;28;20048;-82
2022/10/01 05:52:15;;;;;;;15.93;12.33;;;;;;;6.90;100.00;100082.44;5051792;28;20051;-81
2022/10/01 05:54:42;;;;;;;15.97;11.47;;;;;;;6.88;100.00;100067.59;5026756;28;20110;-82
2022/10/01 05:57:09;;;;;;;16.80;11.70;;;;;;;6.91;100.00;100065.81;5059924;28;20041;-81
2022/10/01 05:59:36;;;;;;;15.67;11.80;;;;;;;6.83;100.00;100065.03;5034491;28;20037;-82
2022/10/01 06:02:03;;;;;;;15.70;11.63;;;;;;;6.85;100.00;100054.53;5030384;28;20409;-82
2022/10/01 06:04:30;;;;;;;16.67;11.80;;;;;;;6.88;100.00;100051.84;5034596;28;20076;-81
2022/10/01 06:06:57;;;;;;;13.27;10.73;;;;;;;6.88;100.00;100047.44;5043161;28;20041;-83
2022/10/01 06:09:24;;;;;;;15.07;11.63;;;;;;;6.94;100.00;100041.25;5034682;28;20037;-83
2022/10/01 06:11:50;;;;;;;14.27;10.83;;;;;;;7.05;100.00;100042.78;5052153;28;20037;-83
2022/10/01 06:14:17;;;;;;;17.13;11.23;;;;;;;7.09;100.00;100043.63;5032374;28;20044;-83
2022/10/01 06:16:45;;;;;;;17.13;11.40;;;;;;;7.22;100.00;100031.16;5047949;28;20497;-81
2022/10/01 06:19:12;;;;;;;14.10;10.37;;;;;;;7.38;100.00;100037.00;5062086;28;20056;-81
2022/10/01 06:21:39;;;;;;;12.47;10.30;;;;;;;7.48;100.00;100014.94;5035428;28;20036;-83
2022/10/01 06:24:05;;;;;;;14.83;10.60;;;;;;;7.49;100.00;100014.06;5043476;28;20033;-82
2022/10/01 06:26:32;;;;;;;15.23;10.63;;;;;;;7.53;100.00;100007.84;5038284;28;20131;-83
2022/10/01 06:28:59;;;;;;;14.10;11.27;;;;;;;7.69;100.00;100008.41;5029100;28;20040;-82
2022/10/01 06:31:26;;;;;;;13.27;9.77;;;;;;;7.71;100.00;100002.22;5031321;28;20037;-83
2022/10/01 06:33:53;;;;;;;14.57;10.67;;;;;;;7.74;100.00;100001.31;5050987;28;20050;-82
2022/10/01 06:36:19;;;;;;;13.10;9.67;;;;;;;7.91;100.00;99996.59;5032952;28;20041;-82
2022/10/01 06:38:49;;;;;;;14.10;10.40;;;;;;;7.95;100.00;99990.34;5031160;28;20047;-82
2022/10/01 06:41:16;;;;;;;13.47;9.33;;;;;;;8.07;100.00;100002.38;5046882;28;20394;-81
2022/10/01 06:43:42;;;;;;;10.33;8.07;;;;;;;8.00;100.00;99998.16;5025269;28;20041;-82
2022/10/01 06:46:09;;;;;;;13.80;8.67;;;;;;;8.03;100.00;99984.94;5033485;28;20532;-82
2022/10/01 06:48:36;;;;;;;12.47;9.10;;;;;;;8.15;100.00;99982.91;5048355;28;20663;-82
2022/10/01 06:51:03;;;;;;;11.37;8.27;;;;;;;8.17;100.00;99985.53;5032821;28;20086;-80
2022/10/01 06:53:30;;;;;;;12.77;8.70;;;;;;;8.22;100.00;99972.25;5067245;28;20041;-79
2022/10/01 06:56:05;;;;;;;11.03;8.40;;;;;;;8.22;100.00;99973.13;5049228;28;20575;-80
2022/10/01 06:58:32;;;;;;;12.27;8.53;;;;;;;8.27;100.00;99979.16;5046426;28;20040;-80
2022/10/01 07:01:00;;;;;;;10.93;6.93;;;;;;;8.27;100.00;99959.88;5065679;28;20040;-79
2022/10/01 07:03:28;;;;;;;10.43;7.73;;;;;;;8.35;100.00;99969.34;5031766;28;20032;-80
2022/10/01 07:05:59;;;;;;;12.73;8.43;;;;;;;8.58;100.00;99960.94;5062212;28;20032;-81
2022/10/01 07:08:29;;;;;;;9.60;7.80;;;;;;;8.54;100.00;99961.03;5032547;28;20045;-80
2022/10/01 07:11:01;;;;;;;9.43;7.47;;;;;;;8.52;100.00;99961.06;5035430;28;20048;-81
2022/10/01 07:13:28;;;;;;;9.60;7.20;;;;;;;8.66;100.00;99959.00;5059928;28;20056;-83
2022/10/01 07:15:55;;;;;;;10.43;7.50;;;;;;;8.66;100.00;99947.56;5064569;28;20032;-84
2022/10/01 07:18:22;;;;;;;10.47;7.50;;;;;;;8.63;100.00;99950.28;5035809;28;20037;-83
2022/10/01 07:20:49;;;;;;;9.63;6.97;;;;;;;8.68;100.00;99945.78;5049829;28;20037;-83
2022/10/01 07:23:16;;;;;;;10.33;7.60;;;;;;;8.68;100.00;99935.25;5032302;28;20128;-82
2022/10/01 07:25:43;;;;;;;10.57;7.97;;;;;;;8.72;100.00;99944.78;5021170;28;20048;-82
2022/10/01 07:28:15;;;;;;;11.77;7.20;;;;;;;8.82;100.00;99933.13;5025072;28;20041;-84
2022/10/01 07:30:55;;;;;;;10.10;6.90;;;;;;;8.81;100.00;99931.41;5033113;28;22001;-81
2022/10/01 07:33:22;;;;;;;10.97;7.10;;;;;;;8.97;100.00;99926.63;5033604;28;20040;-81
2022/10/01 07:35:49;;;;;;;12.67;7.37;;;;;;;8.87;100.00;99922.50;5033650;28;20504;-82
2022/10/01 07:38:15;;;;;;;9.30;6.87;;;;;;;8.94;100.00;99922.28;5034611;28;20405;-82
2022/10/01 07:40:42;;;;;;;9.00;6.90;;;;;;;8.99;100.00;99915.13;5028440;28;20040;-82
2022/10/01 07:43:09;;;;;;;8.40;6.43;;;;;;;9.01;100.00;99915.09;5028961;28;20436;-81
2022/10/01 07:45:35;;;;;;;12.43;6.77;;;;;;;9.08;100.00;99915.78;5047490;28;20041;-79
2022/10/01 07:48:03;;;;;;;10.07;7.03;;;;;;;9.10;100.00;99916.63;5068088;28;20701;-80
2022/10/01 07:50:29;;;;;;;9.75;6.40;;;;;;;9.23;100.00;99907.47;5050052;28;20046;-81
2022/10/01 07:52:57;;;;;;;9.27;6.70;;;;;;;9.17;100.00;99905.91;5051816;28;20405;-80
2022/10/01 07:55:25;;;;;;;7.47;5.80;;;;;;;9.25;100.00;99898.66;5043244;28;20047;-80
2022/10/01 07:57:54;;;;;;;12.25;7.45;;;;;;;9.35;100.00;99893.97;5069273;28;20039;-82
2022/10/01 08:00:21;;;;;;;11.18;6.40;;;;;;;9.45;100.00;99886.69;5038732;28;20040;-80
2022/10/01 08:02:49;;;;;;;6.55;5.80;;;;;;;9.58;100.00;99895.94;5063454;28;20028;-80
2022/10/01 08:05:21;;;;;;;8.95;6.55;;;;;;;9.63;100.00;99887.91;5048945;28;20040;-79
2022/10/01 08:07:48;;;;;;;8.05;6.30;;;;;;;9.83;100.00;99872.34;5047745;28;20036;-81
2022/10/01 08:10:17;;;;;;;8.93;5.55;;;;;;;9.86;100.00;99872.28;5063020;28;20040;-81
2022/10/01 08:12:44;;;;;;;8.23;5.50;;;;;;;9.96;100.00;99870.22;5060590;28;20029;-80
2022/10/01 08:15:13;;;;;;;9.25;6.95;;;;;;;10.06;100.00;99876.94;5069338;28;20464;-80
2022/10/01 08:17:40;;;;;;;9.38;6.25;;;;;;;10.13;100.00;99865.28;5056258;28;20037;-81
2022/10/01 08:20:10;;;;;;;9.65;6.53;;;;;;;10.19;100.00;99869.53;5052799;28;20464;-81
2022/10/01 08:22:36;;;;;;;9.07;6.43;;;;;;;10.26;100.00;99857.91;5067352;28;20029;-79
2022/10/01 08:25:07;;;;;;;7.80;6.18;;;;;;;10.31;100.00;99859.47;5058823;28;20040;-79
2022/10/01 08:27:34;;;;;;;7.22;6.28;;;;;;;10.37;100.00;99854.00;5044863;28;20043;-80
2022/10/01 08:30:01;;;;;;;8.63;6.47;;;;;;;10.54;100.00;99848.16;5042762;28;20095;-81
2022/10/01 08:32:29;;;;;;;10.73;7.85;;;;;;;10.60;100.00;99847.09;5034565;28;20089;-80
2022/10/01 08:34:57;;;;;;;7.63;6.55;;;;;;;10.72;100.00;99844.03;5069040;28;20060;-80
2022/10/01 08:37:26;;;;;;;9.52;5.93;;;;;;;10.81;100.00;99845.50;5065254;28;20049;-80
2022/10/01 08:39:53;;;;;;;7.60;6.53;;;;;;;10.90;100.00;99827.53;5052676;28;20063;-81
2022/10/01 08:42:33;;;;;;;22.70;21.00;;;;;;;11.00;100.00;99834.22;5048305;28;20037;-81
2022/10/01 08:45:04;;;;;;;8.85;7.95;;;;;;;11.04;100.00;99820.91;5060245;28;20041;-82
2022/10/01 08:47:34;;;;;;;7.13;5.72;;;;;;;11.06;100.00;99827.84;5058870;28;20045;-81
2022/10/01 08:50:11;;;;;;;8.18;6.03;;;;;;;11.16;100.00;99823.97;5047093;28;20048;-80
2022/10/01 08:52:49;;;;;;;7.03;5.63;;;;;;;11.21;100.00;99816.72;5042319;28;20036;-79
2022/10/01 08:55:19;;;;;;;8.68;6.22;;;;;;;11.26;100.00;99821.84;5073352;28;20040;-81
2022/10/01 08:57:58;;;;;;;7.80;5.72;;;;;;;11.28;100.00;99809.44;5058543;28;20547;-80
2022/10/01 09:00:26;;;;;;;5.93;5.15;;;;;;;11.36;100.00;99803.88;5044169;28;20060;-81
2022/10/01 09:02:53;;;;;;;6.88;4.70;;;;;;;11.38;100.00;99802.88;5056706;28;20044;-80
2022/10/01 09:05:41;;;;;;;7.35;5.57;;;;;;;11.63;100.00;99797.53;5068446;28;20056;-80
2022/10/01 09:08:42;;;;;;;6.63;5.70;;;;;;;11.65;99.64;99792.19;5087340;28;20040;-80
2022/10/01 09:11:28;;;;;;;5.60;4.60;;;;;;;11.87;100.00;99795.75;5040731;28;20037;-82
2022/10/01 09:14:23;;;;;;;7.90;5.15;;;;;;;11.94;95.95;99796.34;5051740;28;20064;-83
2022/10/01 09:16:58;;;;;;;6.55;4.75;;;;;;;11.91;97.22;99792.03;5041527;28;20036;-83
2022/10/01 09:19:56;;;;;;;9.23;5.30;;;;;;;12.10;97.06;99785.06;5042331;28;20033;-82
2022/10/01 09:22:30;;;;;;;7.32;5.32;;;;;;;12.10;95.14;99781.56;5043232;28;20319;-82
2022/10/01 09:25:09;;;;;;;8.27;5.07;;;;;;;12.23;97.87;99781.94;5027862;28;20051;-81
2022/10/01 09:27:37;;;;;;;6.60;4.85;;;;;;;12.39;99.72;99775.94;5078526;28;20041;-82
2022/10/01 09:30:22;;;;;;;5.53;4.18;;;;;;;12.45;94.06;99776.63;5041818;28;20044;-82
2022/10/01 09:33:01;;;;;;;5.63;4.22;;;;;;;12.50;95.08;99769.31;5056874;28;20043;-80
2022/10/01 09:35:40;;;;;;;6.50;4.68;;;;;;;12.50;93.52;99758.72;5067167;28;20044;-82
2022/10/01 09:38:12;;;;;;;6.35;4.75;;;;;;;12.48;91.92;99764.09;5048961;28;20048;-82
2022/10/01 09:40:45;;;;;;;5.82;4.03;;;;;;;12.53;93.33;99759.47;5044184;28;20044;-82
2022/10/01 09:43:13;;;;;;;6.97;4.60;;;;;;;12.56;91.35;99743.44;5049778;28;20041;-82
2022/10/01 09:45:39;;;;;;;6.65;4.45;;;;;;;12.59;92.67;99751.25;5027576;28;20098;-82
2022/10/01 09:48:17;;;;;;;5.72;4.15;;;;;;;12.62;91.35;99745.84;5059953;28;20050;-83
2022/10/01 09:50:54;;;;;;;6.57;4.45;;;;;;;12.67;91.74;99745.63;5034343;28;20051;-83
2022/10/01 09:53:25;;;;;;;5.35;4.47;;;;;;;12.66;91.52;99742.09;5040661;28;20123;-81
2022/10/01 09:55:55;;;;;;;5.13;4.32;;;;;;;12.61;91.43;99744.13;5030049;28;20440;-81
2022/10/01 09:58:23;;;;;;;6.28;4.00;;;;;;;12.63;90.80;99733.44;5024930;28;20044;-79
2022/10/01 10:00:52;;;;;;;4.40;4.00;;;;;;;12.60;91.67;99729.13;5042257;28;20037;-81
2022/10/01 10:03:29;;;;;;;5.32;4.00;;;;;;;12.66;91.17;99728.84;5030991;28;20136;-79
2022/10/01 10:05:58;;;;;;;7.82;4.45;;;;;;;12.67;90.55;99735.00;5041156;28;20067;-80
2022/10/01 10:08:29;;;;;;;5.07;3.88;;;;;;;12.66;92.43;99734.16;5042754;28;20037;-78
2022/10/01 10:11:05;;;;;;;4.72;3.75;;;;;;;12.64;95.72;99727.22;5058551;28;20068;-79
2022/10/01 10:13:34;;;;;;;5.55;4.18;;;;;;;12.62;95.62;99726.44;5030004;28;20033;-78
2022/10/01 10:16:26;;;;;;;5.30;4.20;;;;;;;12.57;95.47;99728.41;5045128;28;22081;-78
2022/10/01 10:18:57;;;;;;;5.10;4.25;;;;;;;12.49;94.59;99722.56;5044015;28;20094;-79
2022/10/01 10:21:26;;;;;;;4.35;3.72;;;;;;;12.44;96.95;99725.41;5026751;28;1042545;-78
2022/10/01 10:23:56;;;;;;;4.55;3.65;;;;;;;12.38;100.00;99723.91;5064123;28;20024;-78
2022/10/01 10:26:33;;;;;;;13.50;7.63;;;;;;;12.23;99.73;99723.69;5046086;28;20477;-79
2022/10/01 10:29:02;;;;;;;8.95;4.78;;;;;;;12.20;100.00;99715.88;5053294;28;20143;-77
2022/10/01 10:31:37;;;;;;;8.55;5.35;;;;;;;12.17;100.00;99713.34;5036762;28;20048;-78
2022/10/01 10:34:15;;;;;;;5.00;3.63;;;;;;;12.02;100.00;99712.19;5065949;28;20039;-78
2022/10/01 10:36:43;;;;;;;4.90;4.40;;;;;;;11.95;100.00;99703.66;5047014;28;20037;-79
2022/10/01 10:39:22;;;;;;;7.18;5.68;;;;;;;11.95;100.00;99710.75;5064719;28;20390;-78
2022/10/01 10:41:50;;;;;;;14.10;12.73;;;;;;;11.92;100.00;99718.78;5047488;28;20045;-78
2022/10/01 10:44:20;;;;;;;5.43;4.22;;;;;;;11.79;100.00;99713.97;5043409;28;20244;-78
2022/10/01 10:46:47;;;;;;;4.68;3.88;;;;;;;11.76;100.00;99716.72;5044402;28;20047;-78
2022/10/01 10:49:22;;;;;;;4.50;4.03;;;;;;;11.64;100.00;99711.09;5041946;28;20512;-80
2022/10/01 10:51:54;;;;;;;5.05;3.85;;;;;;;11.59;100.00;99710.41;5062487;28;20105;-80
2022/10/01 10:54:24;;;;;;;5.78;5.07;;;;;;;11.54;100.00;99707.94;5063986;28;20708;-80
2022/10/01 10:57:02;;;;;;;6.72;4.95;;;;;;;11.57;100.00;99703.38;5036468;28;20032;-81
2022/10/01 10:59:31;;;;;;;7.97;4.43;;;;;;;11.49;100.00;99704.59;5053107;28;20047;-79
2022/10/01 11:01:59;;;;;;;5.38;4.40;;;;;;;11.49;100.00;99699.31;5065220;28;20044;-79
2022/10/01 11:04:31;;;;;;;6.18;4.18;;;;;;;11.49;100.00;99699.31;5051221;28;20039;-81
2022/10/01 11:07:01;;;;;;;5.60;4.20;;;;;;;11.48;100.00;99700.25;5032927;28;20040;-81
2022/10/01 11:09:54;;;;;;;5.45;4.05;;;;;;;11.41;100.00;99704.03;5060622;28;20503;-80
2022/10/01 11:12:37;;;;;;;7.75;4.72;;;;;;;11.43;100.00;99704.84;5066016;28;20036;-82
2022/10/01 11:15:14;;;;;;;6.72;4.50;;;;;;;11.36;100.00;99698.09;5031331;28;20041;-82
2022/10/01 11:18:09;;;;;;;6.95;4.90;;;;;;;11.34;100.00;99699.91;5027735;28;20036;-81
2022/10/01 11:20:59;;;;;;;5.22;4.38;;;;;;;11.31;100.00;99684.19;5059278;28;20489;-80
2022/10/01 11:23:36;;;;;;;5.28;3.90;;;;;;;11.30;100.00;99693.03;5030112;28;20643;-81
2022/10/01 11:26:29;;;;;;;6.55;3.85;;;;;;;11.18;100.00;99686.41;5058814;28;20128;-80
2022/10/01 11:29:19;;;;;;;7.03;4.00;;;;;;;11.12;100.00;99690.19;5036359;28;20040;-80
2022/10/01 11:31:53;;;;;;;5.30;4.03;;;;;;;11.08;100.00;99680.63;5067952;28;20040;-81
2022/10/01 11:34:40;;;;;;;4.60;3.70;;;;;;;11.02;100.00;99675.59;5031762;28;20041;-81
2022/10/01 11:37:27;;;;;;;6.60;4.05;;;;;;;10.98;100.00;99677.47;5051731;28;20040;-80